Time;durP1;ratioP1;P1;durP2;ratioP2;P2;SDS_P1;SDS_P2;PMS_P1;PMS_P2;Temp;Humidity;BMP_temperature;BMP_pressure;BME280_temperature;BME280_humidity;BME280_pressure;Samples;Min_cycle;Max_cycle;Signal;HPM_P1;HPM_P2
2023/08/22 00:02:04;;;;;;;4.68;1.50;;;;;;;;;;5007667;28;20117;-80
2023/08/22 00:04:30;;;;;;;4.18;1.90;;;;;;;;;;4988961;28;20034;-79
2023/08/22 00:06:55;;;;;;;5.85;1.70;;;;;;;;;;5000192;28;20509;-80
2023/08/22 00:09:24;;;;;;;8.32;1.98;;;;;;;;;;5011959;28;20045;-79
2023/08/22 00:11:49;;;;;;;4.63;1.70;;;;;;;;;;4999541;28;20072;-79
2023/08/22 00:14:15;;;;;;;5.80;1.60;;;;;;;;;;5005751;28;20132;-79
2023/08/22 00:16:41;;;;;;;4.57;1.70;;;;;;;;;;5001929;28;20581;-78
2023/08/22 00:19:06;;;;;;;3.00;1.48;;;;;;;;;;5010299;28;20034;-80
2023/08/22 00:21:32;;;;;;;5.40;1.67;;;;;;;;;;4998946;28;20088;-79
2023/08/22 00:23:58;;;;;;;5.53;1.73;;;;;;;;;;5013386;28;20034;-79
2023/08/22 00:26:23;;;;;;;7.15;1.95;;;;;;;;;;5009280;28;20038;-80
2023/08/22 00:28:49;;;;;;;5.32;1.75;;;;;;;;;;5000554;28;20401;-80
2023/08/22 00:31:14;;;;;;;6.13;1.55;;;;;;;;;;5010843;28;20034;-80
2023/08/22 00:33:43;;;;;;;5.53;1.70;;;;;;;;;;4993694;28;20386;-79
2023/08/22 00:36:08;;;;;;;6.38;1.60;;;;;;;;;;5003029;28;20029;-80
2023/08/22 00:38:37;;;;;;;5.03;1.98;;;;;;;;;;5012688;28;20029;-78
2023/08/22 00:41:02;;;;;;;5.50;1.70;;;;;;;;;;5000729;28;20378;-80
2023/08/22 00:43:28;;;;;;;4.50;1.42;;;;;;;;;;4987925;28;20034;-79
2023/08/22 00:45:53;;;;;;;9.07;1.90;;;;;;;;;;5010393;28;20485;-80
2023/08/22 00:48:19;;;;;;;4.53;1.50;;;;;;;;;;5004921;28;20034;-79
2023/08/22 00:50:47;;;;;;;6.32;1.80;;;;;;;;;;5010494;28;20022;-81
2023/08/22 00:53:16;;;;;;;5.90;1.60;;;;;;;;;;5003186;28;20030;-79
2023/08/22 00:55:41;;;;;;;4.38;1.58;;;;;;;;;;4994225;28;20056;-80
2023/08/22 00:58:07;;;;;;;5.65;1.67;;;;;;;;;;4985850;28;20057;-80
2023/08/22 01:00:35;;;;;;;6.03;1.58;;;;;;;;;;5002479;28;20111;-80
2023/08/22 01:03:03;;;;;;;3.30;1.70;;;;;;;;;;5009515;28;20037;-79
2023/08/22 01:05:29;;;;;;;3.72;1.35;;;;;;;;;;4997369;28;20058;-80
2023/08/22 01:08:04;;;;;;;7.63;1.60;;;;;;;;;;4991990;28;20026;-79
2023/08/22 01:10:36;;;;;;;6.47;1.73;;;;;;;;;;5004866;28;20041;-80
2023/08/22 01:13:10;;;;;;;3.70;1.60;;;;;;;;;;5012541;28;20033;-79
2023/08/22 01:15:35;;;;;;;3.88;1.80;;;;;;;;;;5008981;28;20026;-78
2023/08/22 01:18:04;;;;;;;5.05;1.58;;;;;;;;;;5006476;28;20375;-79
2023/08/22 01:20:29;;;;;;;7.00;1.90;;;;;;;;;;5004242;28;20033;-80
2023/08/22 01:22:57;;;;;;;5.53;2.05;;;;;;;;;;5006561;28;20038;-79
2023/08/22 01:25:27;;;;;;;5.75;1.70;;;;;;;;;;5016593;28;20173;-80
2023/08/22 01:27:53;;;;;;;4.95;1.45;;;;;;;;;;5007012;28;20137;-78
2023/08/22 01:30:25;;;;;;;3.90;1.52;;;;;;;;;;5016020;28;20045;-80
2023/08/22 01:32:52;;;;;;;5.25;1.63;;;;;;;;;;5020430;28;20029;-80
2023/08/22 01:35:22;;;;;;;4.38;1.40;;;;;;;;;;5011756;28;20041;-81
2023/08/22 01:37:49;;;;;;;5.18;1.52;;;;;;;;;;5009033;28;20113;-80
2023/08/22 01:40:17;;;;;;;4.97;1.80;;;;;;;;;;5028652;28;20048;-77
2023/08/22 01:42:42;;;;;;;6.30;1.73;;;;;;;;;;5027003;28;20026;-79
2023/08/22 01:45:08;;;;;;;4.72;1.58;;;;;;;;;;5012041;28;20030;-79
2023/08/22 01:47:36;;;;;;;8.18;1.70;;;;;;;;;;5017329;28;20101;-80
2023/08/22 01:50:02;;;;;;;4.32;1.50;;;;;;;;;;4987422;28;20041;-80
2023/08/22 01:52:28;;;;;;;6.38;1.35;;;;;;;;;;5004869;28;20077;-80
2023/08/22 01:54:57;;;;;;;3.00;1.27;;;;;;;;;;4966742;28;20068;-80
2023/08/22 01:57:23;;;;;;;6.53;1.80;;;;;;;;;;5009602;28;20022;-79
2023/08/22 01:59:52;;;;;;;4.47;1.70;;;;;;;;;;4983129;28;20076;-80
2023/08/22 02:02:17;;;;;;;4.50;1.33;;;;;;;;;;5013877;28;20034;-78
2023/08/22 02:04:43;;;;;;;4.95;1.55;;;;;;;;;;5000140;28;20117;-79
2023/08/22 02:07:09;;;;;;;6.53;1.92;;;;;;;;;;4989634;28;20025;-77
2023/08/22 02:09:35;;;;;;;5.18;1.70;;;;;;;;;;5003226;28;20105;-78
2023/08/22 02:12:00;;;;;;;4.22;1.52;;;;;;;;;;5009007;28;20031;-79
2023/08/22 02:14:26;;;;;;;4.03;1.55;;;;;;;;;;4999580;28;20513;-80
2023/08/22 02:16:51;;;;;;;5.63;1.75;;;;;;;;;;5007351;28;20037;-80
2023/08/22 02:19:17;;;;;;;4.22;1.45;;;;;;;;;;4981532;28;20026;-79
2023/08/22 02:21:43;;;;;;;6.38;1.70;;;;;;;;;;5010618;28;20027;-80
2023/08/22 02:24:12;;;;;;;6.72;2.05;;;;;;;;;;4995802;28;20394;-81
2023/08/22 02:26:41;;;;;;;4.07;1.90;;;;;;;;;;4988694;28;20034;-81
2023/08/22 02:29:06;;;;;;;5.15;2.10;;;;;;;;;;5014651;28;20148;-79
2023/08/22 02:31:35;;;;;;;7.13;1.75;;;;;;;;;;4984028;28;20465;-79
2023/08/22 02:34:00;;;;;;;;;;;;;;;;;;5006492;28;20033;-80
2023/08/22 02:36:26;;;;;;;5.80;1.65;;;;;;;;;;4985576;28;19913;-80
2023/08/22 02:38:52;;;;;;;4.32;1.50;;;;;;;;;;4994714;28;20063;-80
2023/08/22 02:41:19;;;;;;;6.65;2.00;;;;;;;;;;5011502;28;20160;-80
2023/08/22 02:43:47;;;;;;;9.88;3.15;;;;;;;;;;5011477;28;20489;-80
2023/08/22 02:46:13;;;;;;;10.15;3.55;;;;;;;;;;5012770;28;20507;-79
2023/08/22 02:48:39;;;;;;;6.40;2.03;;;;;;;;;;5001368;28;20038;-80
2023/08/22 02:51:07;;;;;;;4.15;1.40;;;;;;;;;;4980146;28;20033;-79
2023/08/22 02:53:32;;;;;;;7.60;2.15;;;;;;;;;;5007942;28;20545;-79
2023/08/22 02:56:00;;;;;;;9.23;4.38;;;;;;;;;;4974274;28;20549;-80
2023/08/22 02:58:30;;;;;;;6.47;3.13;;;;;;;;;;5010874;28;20485;-80
2023/08/22 03:00:56;;;;;;;12.27;6.13;;;;;;;;;;4997456;28;20030;-80
2023/08/22 03:03:22;;;;;;;8.13;2.25;;;;;;;;;;4988024;28;20445;-79
2023/08/22 03:05:48;;;;;;;5.53;1.85;;;;;;;;;;5009927;28;20488;-79
2023/08/22 03:08:14;;;;;;;5.82;1.92;;;;;;;;;;4986546;28;20031;-78
2023/08/22 03:10:40;;;;;;;4.75;1.85;;;;;;;;;;4987171;28;20040;-79
2023/08/22 03:13:10;;;;;;;6.13;1.90;;;;;;;;;;4995031;28;20481;-80
2023/08/22 03:15:38;;;;;;;7.65;1.75;;;;;;;;;;5007654;28;20485;-80
2023/08/22 03:18:04;;;;;;;6.57;2.33;;;;;;;;;;4996971;28;20044;-80
2023/08/22 03:20:30;;;;;;;3.85;1.63;;;;;;;;;;4976263;28;20485;-80
2023/08/22 03:23:00;;;;;;;5.93;1.98;;;;;;;;;;4981062;28;20149;-81
2023/08/22 03:25:26;;;;;;;8.45;2.30;;;;;;;;;;4991234;28;20552;-81
2023/08/22 03:27:52;;;;;;;8.93;2.05;;;;;;;;;;4979421;28;20034;-81
2023/08/22 03:30:17;;;;;;;8.38;1.75;;;;;;;;;;4986991;28;20034;-80
2023/08/22 03:32:45;;;;;;;5.60;1.60;;;;;;;;;;4987430;28;20034;-81
2023/08/22 03:35:10;;;;;;;6.18;1.80;;;;;;;;;;4978619;28;20089;-81
2023/08/22 03:37:40;;;;;;;4.88;1.95;;;;;;;;;;4991930;28;20093;-80
2023/08/22 03:40:06;;;;;;;7.63;2.28;;;;;;;;;;4999202;28;20082;-81
2023/08/22 03:42:32;;;;;;;12.90;2.85;;;;;;;;;;4984373;28;20096;-78
2023/08/22 03:45:04;;;;;;;5.95;2.10;;;;;;;;;;5007160;28;20030;-80
2023/08/22 03:47:30;;;;;;;6.75;1.80;;;;;;;;;;4980799;28;20042;-80
2023/08/22 03:49:56;;;;;;;12.27;2.42;;;;;;;;;;5008806;28;20042;-80
2023/08/22 03:52:25;;;;;;;10.05;2.67;;;;;;;;;;4972107;28;20034;-80
2023/08/22 03:54:50;;;;;;;9.48;2.50;;;;;;;;;;4981252;28;20088;-80
2023/08/22 03:57:18;;;;;;;10.43;2.67;;;;;;;;;;5000468;28;20117;-81
2023/08/22 03:59:43;;;;;;;9.90;3.10;;;;;;;;;;4996357;28;20074;-79
2023/08/22 04:02:09;;;;;;;8.38;2.53;;;;;;;;;;4996400;28;20040;-80
2023/08/22 04:04:45;;;;;;;5.90;2.28;;;;;;;;;;5000001;28;20030;-80
2023/08/22 04:07:14;;;;;;;9.32;2.58;;;;;;;;;;4999384;28;20057;-79
2023/08/22 04:09:40;;;;;;;9.65;2.25;;;;;;;;;;5018346;28;20038;-80
2023/08/22 04:12:06;;;;;;;10.38;2.58;;;;;;;;;;5010391;28;20030;-80
2023/08/22 04:14:31;;;;;;;7.82;2.55;;;;;;;;;;5016835;28;20035;-79
2023/08/22 04:16:57;;;;;;;4.32;2.05;;;;;;;;;;4984828;28;20049;-81
2023/08/22 04:19:24;;;;;;;5.88;2.15;;;;;;;;;;5028534;28;20045;-80
2023/08/22 04:21:52;;;;;;;5.60;2.40;;;;;;;;;;4986465;28;20033;-81
2023/08/22 04:24:20;;;;;;;7.78;2.22;;;;;;;;;;5000993;28;20034;-80
2023/08/22 04:26:51;;;;;;;10.48;3.15;;;;;;;;;;5009144;28;20532;-80
2023/08/22 04:29:29;;;;;;;10.10;3.40;;;;;;;;;;5015930;28;20041;-79
2023/08/22 04:31:58;;;;;;;6.45;2.55;;;;;;;;;;5015758;28;20428;-79
2023/08/22 04:34:24;;;;;;;7.10;2.78;;;;;;;;;;5001414;28;20062;-78
2023/08/22 04:36:56;;;;;;;6.63;2.78;;;;;;;;;;4997168;28;20038;-80
2023/08/22 04:39:22;;;;;;;6.15;2.40;;;;;;;;;;4996847;28;20156;-79
2023/08/22 04:41:52;;;;;;;6.82;2.78;;;;;;;;;;5011299;28;20033;-80
2023/08/22 04:44:26;;;;;;;6.03;2.30;;;;;;;;;;5013696;28;20022;-79
2023/08/22 04:47:13;;;;;;;7.15;2.78;;;;;;;;;;5013579;28;20026;-79
2023/08/22 04:49:43;;;;;;;7.63;2.63;;;;;;;;;;4995519;28;20038;-78
2023/08/22 04:52:09;;;;;;;9.45;3.72;;;;;;;;;;4975796;28;20532;-79
2023/08/22 04:54:35;;;;;;;8.30;3.35;;;;;;;;;;4989544;28;20076;-80
2023/08/22 04:57:01;;;;;;;13.07;2.47;;;;;;;;;;4993292;28;20030;-79
2023/08/22 04:59:27;;;;;;;6.82;2.70;;;;;;;;;;4997105;28;20519;-78
2023/08/22 05:01:56;;;;;;;6.05;2.55;;;;;;;;;;5008831;28;20026;-80
2023/08/22 05:04:24;;;;;;;5.68;2.70;;;;;;;;;;4984695;28;20038;-78
2023/08/22 05:06:53;;;;;;;6.50;2.72;;;;;;;;;;4991303;28;20084;-79
2023/08/22 05:09:21;;;;;;;6.53;3.40;;;;;;;;;;5007002;28;20026;-79
2023/08/22 05:11:47;;;;;;;5.43;2.45;;;;;;;;;;4987303;28;20580;-80
2023/08/22 05:14:13;;;;;;;6.72;2.90;;;;;;;;;;4985541;28;20504;-79
2023/08/22 05:16:39;;;;;;;8.68;2.83;;;;;;;;;;4980493;28;20034;-80
2023/08/22 05:19:06;;;;;;;12.13;4.03;;;;;;;;;;4996702;28;20030;-80
2023/08/22 05:21:32;;;;;;;14.27;7.75;;;;;;;;;;4996979;28;20117;-80
2023/08/22 05:24:00;;;;;;;8.68;3.50;;;;;;;;;;4997001;28;20033;-78
2023/08/22 05:26:30;;;;;;;10.73;2.72;;;;;;;;;;4978368;28;20028;-80
2023/08/22 05:28:56;;;;;;;8.43;3.28;;;;;;;;;;5008859;28;20049;-80
2023/08/22 05:31:26;;;;;;;7.55;3.47;;;;;;;;;;5013356;28;20087;-80
2023/08/22 05:33:52;;;;;;;11.25;3.03;;;;;;;;;;4977943;28;20038;-81
2023/08/22 05:36:18;;;;;;;9.00;4.05;;;;;;;;;;4997660;28;20108;-82
2023/08/22 05:38:44;;;;;;;8.52;3.50;;;;;;;;;;4981349;28;20473;-81
2023/08/22 05:41:14;;;;;;;7.95;3.70;;;;;;;;;;5006226;28;20493;-81
2023/08/22 05:43:40;;;;;;;;;;;;;;;;;;4994273;28;20347;-81
2023/08/22 05:46:06;;;;;;;9.48;3.25;;;;;;;;;;4985378;28;20015;-81
2023/08/22 05:48:32;;;;;;;6.70;3.55;;;;;;;;;;4992908;28;20437;-81
2023/08/22 05:50:58;;;;;;;8.52;3.67;;;;;;;;;;5011212;28;20552;-79
2023/08/22 05:53:24;;;;;;;7.97;4.05;;;;;;;;;;4996837;28;20420;-81
2023/08/22 05:55:49;;;;;;;9.32;3.50;;;;;;;;;;4999738;28;20081;-81
2023/08/22 05:58:15;;;;;;;8.32;3.90;;;;;;;;;;5000009;28;20405;-80
2023/08/22 06:00:41;;;;;;;8.48;4.03;;;;;;;;;;5014173;28;20017;-80
2023/08/22 06:03:07;;;;;;;9.00;3.85;;;;;;;;;;4999393;28;20052;-80
2023/08/22 06:05:33;;;;;;;11.32;4.78;;;;;;;;;;4997671;28;20057;-81
2023/08/22 06:07:59;;;;;;;8.43;4.30;;;;;;;;;;5001793;28;20042;-80
2023/08/22 06:10:24;;;;;;;8.93;4.15;;;;;;;;;;4995991;28;20021;-80
2023/08/22 06:12:50;;;;;;;7.30;3.80;;;;;;;;;;5008187;28;20411;-81
2023/08/22 06:15:16;;;;;;;10.48;4.30;;;;;;;;;;4989802;28;20073;-80
2023/08/22 06:17:42;;;;;;;11.13;5.07;;;;;;;;;;4999237;28;20679;-80
2023/08/22 06:20:08;;;;;;;13.95;5.28;;;;;;;;;;4989648;28;20049;-81
2023/08/22 06:22:34;;;;;;;9.18;4.65;;;;;;;;;;5004314;28;20038;-80
2023/08/22 06:25:00;;;;;;;9.10;4.60;;;;;;;;;;4997955;28;20031;-80
2023/08/22 06:27:26;;;;;;;10.68;4.38;;;;;;;;;;4962868;28;20402;-80
2023/08/22 06:29:53;;;;;;;10.80;4.80;;;;;;;;;;4977606;28;20045;-79
2023/08/22 06:32:21;;;;;;;9.98;4.10;;;;;;;;;;4995877;28;20030;-80
2023/08/22 06:34:48;;;;;;;13.65;4.72;;;;;;;;;;5005622;28;20030;-79
2023/08/22 06:37:21;;;;;;;8.95;4.60;;;;;;;;;;5004667;28;20523;-81
2023/08/22 06:39:52;;;;;;;10.52;4.28;;;;;;;;;;5019939;28;20038;-79
2023/08/22 06:42:17;;;;;;;11.30;5.10;;;;;;;;;;5017897;28;20026;-81
2023/08/22 06:44:50;;;;;;;8.77;4.65;;;;;;;;;;5024037;28;20040;-80
2023/08/22 06:47:16;;;;;;;8.68;5.03;;;;;;;;;;5017636;28;20257;-79
2023/08/22 06:49:41;;;;;;;13.73;5.47;;;;;;;;;;4988217;28;20058;-80
2023/08/22 06:52:07;;;;;;;10.18;5.35;;;;;;;;;;4991321;28;20042;-80
2023/08/22 06:54:33;;;;;;;13.43;5.63;;;;;;;;;;4994683;28;20107;-81
2023/08/22 06:56:59;;;;;;;17.00;7.18;;;;;;;;;;5012761;28;20069;-81
2023/08/22 06:59:24;;;;;;;15.45;5.50;;;;;;;;;;4986615;28;20030;-81
2023/08/22 07:01:50;;;;;;;7.30;4.95;;;;;;;;;;4979445;28;20492;-80
2023/08/22 07:04:16;;;;;;;16.40;6.03;;;;;;;;;;4979464;28;20358;-80
2023/08/22 07:06:41;;;;;;;12.10;5.63;;;;;;;;;;5012002;28;20440;-80
2023/08/22 07:09:07;;;;;;;12.27;5.03;;;;;;;;;;4991001;28;20042;-81
2023/08/22 07:11:33;;;;;;;13.48;5.60;;;;;;;;;;4962814;28;20031;-81
2023/08/22 07:13:58;;;;;;;12.80;4.97;;;;;;;;;;4977311;28;20084;-81
2023/08/22 07:16:24;;;;;;;12.48;5.20;;;;;;;;;;4969158;28;20038;-81
2023/08/22 07:18:49;;;;;;;12.68;5.38;;;;;;;;;;5004940;28;20050;-81
2023/08/22 07:21:15;;;;;;;13.65;4.70;;;;;;;;;;4995434;28;20038;-79
2023/08/22 07:23:41;;;;;;;10.88;4.90;;;;;;;;;;5006581;28;20097;-78
2023/08/22 07:26:07;;;;;;;11.65;4.72;;;;;;;;;;4999194;28;20570;-77
2023/08/22 07:28:33;;;;;;;8.48;4.65;;;;;;;;;;5000934;28;20033;-80
2023/08/22 07:31:00;;;;;;;12.70;4.85;;;;;;;;;;5005983;28;20037;-79
2023/08/22 07:33:25;;;;;;;9.90;5.07;;;;;;;;;;4994481;28;20038;-77
2023/08/22 07:35:51;;;;;;;9.98;4.97;;;;;;;;;;5005781;28;20037;-78
2023/08/22 07:38:16;;;;;;;8.77;4.57;;;;;;;;;;4988498;28;20056;-79
2023/08/22 07:40:42;;;;;;;13.57;5.30;;;;;;;;;;5010795;28;20083;-78
2023/08/22 07:43:10;;;;;;;11.30;5.10;;;;;;;;;;4978893;28;20040;-80
2023/08/22 07:45:36;;;;;;;11.05;5.50;;;;;;;;;;5008077;28;20394;-80
2023/08/22 07:48:02;;;;;;;14.57;4.75;;;;;;;;;;4981453;28;20117;-79
2023/08/22 07:50:28;;;;;;;9.05;4.43;;;;;;;;;;5001018;28;20037;-79
2023/08/22 07:52:53;;;;;;;11.35;4.60;;;;;;;;;;5005611;28;20027;-78
2023/08/22 07:55:19;;;;;;;9.75;4.85;;;;;;;;;;5015702;28;20026;-79
2023/08/22 07:57:45;;;;;;;9.50;4.18;;;;;;;;;;4994874;28;20022;-79
2023/08/22 08:00:11;;;;;;;14.45;4.40;;;;;;;;;;5001656;28;20433;-80
2023/08/22 08:02:40;;;;;;;11.23;4.40;;;;;;;;;;4998750;28;20034;-79
2023/08/22 08:05:06;;;;;;;11.77;4.95;;;;;;;;;;5010556;28;20026;-80
2023/08/22 08:07:32;;;;;;;11.23;4.80;;;;;;;;;;4998954;28;20148;-79
2023/08/22 08:09:58;;;;;;;14.07;4.68;;;;;;;;;;5009352;28;20464;-77
2023/08/22 08:12:23;;;;;;;10.68;4.43;;;;;;;;;;4988389;28;20037;-78
2023/08/22 08:14:54;;;;;;;8.80;4.03;;;;;;;;;;5015102;28;20042;-79
2023/08/22 08:17:20;;;;;;;7.47;3.78;;;;;;;;;;4982772;28;20080;-78
2023/08/22 08:20:02;;;;;;;8.23;4.03;;;;;;;;;;5009702;28;20359;-80
2023/08/22 08:22:28;;;;;;;17.08;4.40;;;;;;;;;;5003995;28;20111;-78
2023/08/22 08:24:54;;;;;;;13.57;4.75;;;;;;;;;;5010666;28;20485;-79
2023/08/22 08:27:20;;;;;;;12.35;3.88;;;;;;;;;;5015059;28;20036;-79
2023/08/22 08:29:46;;;;;;;6.30;3.75;;;;;;;;;;5011166;28;20042;-79
2023/08/22 08:32:11;;;;;;;12.18;3.85;;;;;;;;;;5002700;28;20037;-80
2023/08/22 08:34:37;;;;;;;7.43;3.63;;;;;;;;;;4986277;28;20448;-80
2023/08/22 08:37:04;;;;;;;328.70;206.98;;;;;;;;;;4992616;28;20027;-81
2023/08/22 08:39:29;;;;;;;11.43;6.38;;;;;;;;;;5018006;28;20053;-89
2023/08/22 08:42:03;;;;;;;11.07;4.20;;;;;;;;;;4991323;28;20034;-85
2023/08/22 08:44:32;;;;;;;11.82;3.83;;;;;;;;;;4992832;28;20029;-84
2023/08/22 08:47:12;;;;;;;;;;;;;;;;;;;;;
2023/08/22 08:49:51;;;;;;;12.48;4.95;;;;;;;;;;5021372;28;20069;-89
2023/08/22 08:52:17;;;;;;;;;;;;;;;;;;4996824;28;20461;-86
2023/08/22 08:54:44;;;;;;;7.43;3.90;;;;;;;;;;5029861;28;19916;-89
2023/08/22 08:57:12;;;;;;;9.77;4.07;;;;;;;;;;4985460;28;20121;-89
2023/08/22 08:59:40;;;;;;;11.52;3.95;;;;;;;;;;4981493;28;20060;-90
2023/08/22 09:02:08;;;;;;;8.70;3.35;;;;;;;;;;4987253;28;20101;-90
2023/08/22 09:04:37;;;;;;;12.50;4.85;;;;;;;;;;4992233;28;20034;-91
2023/08/22 09:07:03;;;;;;;11.82;3.85;;;;;;;;;;4997597;28;20045;-90
2023/08/22 09:09:32;;;;;;;10.25;3.47;;;;;;;;;;5016546;28;20018;-89
2023/08/22 09:12:03;;;;;;;12.32;3.95;;;;;;;;;;5005097;28;20034;-89
2023/08/22 09:14:28;;;;;;;12.15;3.72;;;;;;;;;;5034881;23;20022;-92
2023/08/22 09:16:58;;;;;;;6.55;3.25;;;;;;;;;;5042551;28;20021;-91
2023/08/22 09:19:26;;;;;;;12.93;3.90;;;;;;;;;;5038019;28;20128;-89
2023/08/22 09:21:59;;;;;;;11.27;4.32;;;;;;;;;;5017609;28;20084;-89
2023/08/22 09:24:25;;;;;;;8.48;4.05;;;;;;;;;;5035837;28;20144;-91
2023/08/22 09:26:54;;;;;;;10.77;4.07;;;;;;;;;;5018934;28;20033;-90
2023/08/22 09:29:29;;;;;;;8.02;3.88;;;;;;;;;;5018474;28;20113;-86
2023/08/22 09:31:55;;;;;;;8.77;3.55;;;;;;;;;;5017782;28;20030;-87
2023/08/22 09:34:21;;;;;;;9.30;3.65;;;;;;;;;;4984872;28;20012;-88
2023/08/22 09:36:49;;;;;;;10.90;3.70;;;;;;;;;;5017638;28;20477;-89
2023/08/22 09:39:20;;;;;;;7.43;3.60;;;;;;;;;;5012949;28;20031;-87
2023/08/22 09:41:50;;;;;;;11.05;4.10;;;;;;;;;;5026137;28;20064;-89
2023/08/22 09:44:16;;;;;;;8.80;3.53;;;;;;;;;;4994310;28;20041;-89
2023/08/22 09:46:44;;;;;;;10.63;3.67;;;;;;;;;;4969923;28;20038;-91
2023/08/22 09:49:13;;;;;;;13.13;3.58;;;;;;;;;;4970220;28;20030;-86
2023/08/22 09:51:39;;;;;;;17.00;4.13;;;;;;;;;;4996840;28;20482;-84
2023/08/22 09:54:05;;;;;;;12.25;4.95;;;;;;;;;;4993188;28;20496;-83
2023/08/22 09:56:31;;;;;;;9.32;3.67;;;;;;;;;;5007158;28;20030;-82
2023/08/22 09:58:59;;;;;;;12.27;5.07;;;;;;;;;;4995710;28;20027;-84
2023/08/22 10:01:24;;;;;;;12.47;4.87;;;;;;;;;;4996372;28;20053;-83
2023/08/22 10:03:53;;;;;;;11.57;4.90;;;;;;;;;;5017171;28;20026;-84
2023/08/22 10:06:18;;;;;;;;;;;;;;;;;;4997555;28;20030;-84
2023/08/22 10:08:47;;;;;;;9.20;3.85;;;;;;;;;;4995484;28;19957;-87
2023/08/22 10:11:14;;;;;;;9.70;3.70;;;;;;;;;;5005859;28;20026;-84
2023/08/22 10:13:40;;;;;;;13.13;4.03;;;;;;;;;;5001622;28;20018;-82
2023/08/22 10:16:07;;;;;;;10.18;3.75;;;;;;;;;;4995143;28;20037;-81
2023/08/22 10:18:32;;;;;;;7.30;3.55;;;;;;;;;;5008970;28;20084;-81
2023/08/22 10:20:58;;;;;;;10.70;3.47;;;;;;;;;;5003790;28;20068;-81
2023/08/22 10:23:42;;;;;;;10.98;5.07;;;;;;;;;;5013649;28;20322;-83
2023/08/22 10:26:08;;;;;;;6.97;3.55;;;;;;;;;;5004215;28;20030;-82
2023/08/22 10:28:40;;;;;;;10.27;3.35;;;;;;;;;;5010002;28;20036;-83
2023/08/22 10:31:06;;;;;;;9.77;4.25;;;;;;;;;;5033673;28;20033;-81
2023/08/22 10:33:34;;;;;;;8.90;3.83;;;;;;;;;;4999875;28;20045;-80
2023/08/22 10:36:04;;;;;;;10.32;3.35;;;;;;;;;;5010105;28;20148;-83
2023/08/22 10:38:46;;;;;;;7.50;3.60;;;;;;;;;;4989303;28;20037;-80
2023/08/22 10:44:01;;;;;;;9.23;3.88;;;;;;;;;;5009574;28;20056;-80
2023/08/22 10:46:46;;;;;;;12.70;3.78;;;;;;;;;;4992641;28;20050;-80
2023/08/22 10:49:11;;;;;;;10.48;3.97;;;;;;;;;;4997726;28;20033;-81
2023/08/22 10:51:43;;;;;;;14.07;4.20;;;;;;;;;;5008917;28;20030;-83
2023/08/22 10:54:16;;;;;;;10.52;4.40;;;;;;;;;;5010523;28;20052;-81
2023/08/22 10:56:42;;;;;;;10.02;4.05;;;;;;;;;;4982765;28;20034;-81
2023/08/22 10:59:09;;;;;;;12.85;4.32;;;;;;;;;;4995071;28;20060;-80
2023/08/22 11:01:34;;;;;;;8.50;3.80;;;;;;;;;;5012893;28;20037;-79
2023/08/22 11:04:01;;;;;;;9.60;4.07;;;;;;;;;;5001791;28;20443;-79
2023/08/22 11:06:26;;;;;;;10.75;3.85;;;;;;;;;;5004890;28;20473;-81
2023/08/22 11:08:54;;;;;;;9.00;3.70;;;;;;;;;;5026214;28;20067;-81
2023/08/22 11:11:23;;;;;;;12.07;3.65;;;;;;;;;;5014334;28;20029;-81
2023/08/22 11:13:51;;;;;;;6.20;3.35;;;;;;;;;;4999816;28;20038;-83
2023/08/22 11:16:18;;;;;;;9.50;3.95;;;;;;;;;;4988155;28;20030;-82
2023/08/22 11:18:46;;;;;;;7.57;3.40;;;;;;;;;;5025949;28;20041;-80
2023/08/22 11:21:11;;;;;;;;;;;;;;;;;;5012075;28;20057;-79
2023/08/22 11:23:40;;;;;;;14.60;4.07;;;;;;;;;;4984590;28;20379;-81
2023/08/22 11:26:12;;;;;;;7.22;3.92;;;;;;;;;;5020752;28;20515;-82
2023/08/22 11:28:38;;;;;;;10.23;4.10;;;;;;;;;;5006377;28;20030;-82
2023/08/22 11:31:06;;;;;;;9.73;3.92;;;;;;;;;;4993917;28;20052;-82
2023/08/22 11:33:46;;;;;;;6.25;3.53;;;;;;;;;;5015283;28;20034;-80
2023/08/22 11:36:12;;;;;;;8.40;3.80;;;;;;;;;;5005367;28;20076;-80
2023/08/22 11:38:39;;;;;;;8.65;4.10;;;;;;;;;;5048075;28;20025;-82
2023/08/22 11:41:04;;;;;;;6.05;3.58;;;;;;;;;;5039267;28;20017;-82
2023/08/22 11:43:30;;;;;;;8.75;4.00;;;;;;;;;;5041079;28;20045;-81
2023/08/22 11:45:56;;;;;;;9.77;3.95;;;;;;;;;;5016503;28;20034;-80
2023/08/22 11:48:22;;;;;;;14.52;4.90;;;;;;;;;;5026513;28;20558;-80
2023/08/22 11:50:50;;;;;;;13.35;4.70;;;;;;;;;;4996683;28;20041;-83
2023/08/22 11:53:16;;;;;;;9.20;4.50;;;;;;;;;;5004496;28;20025;-81
2023/08/22 11:55:45;;;;;;;11.65;4.15;;;;;;;;;;5006546;28;20032;-81
2023/08/22 11:58:12;;;;;;;6.75;3.47;;;;;;;;;;4997492;28;20419;-82
2023/08/22 12:00:41;;;;;;;7.55;3.90;;;;;;;;;;4997564;28;20096;-81
2023/08/22 12:03:09;;;;;;;10.63;4.22;;;;;;;;;;4979570;28;20041;-81
2023/08/22 12:05:35;;;;;;;8.30;4.18;;;;;;;;;;4995269;28;20034;-81
2023/08/22 12:08:15;;;;;;;7.47;3.80;;;;;;;;;;4996427;28;20032;-80
2023/08/22 12:10:41;;;;;;;8.93;3.63;;;;;;;;;;5010769;28;20087;-80
2023/08/22 12:13:10;;;;;;;10.27;3.72;;;;;;;;;;5000552;28;20033;-81
2023/08/22 12:15:39;;;;;;;7.65;4.38;;;;;;;;;;5003549;28;20445;-79
2023/08/22 12:18:07;;;;;;;9.10;4.13;;;;;;;;;;4990481;28;20030;-81
2023/08/22 12:20:33;;;;;;;10.68;4.35;;;;;;;;;;4997856;28;20030;-79
2023/08/22 12:23:00;;;;;;;12.55;4.22;;;;;;;;;;4990174;28;20029;-81
2023/08/22 12:25:25;;;;;;;9.45;4.30;;;;;;;;;;5023825;28;20033;-79
2023/08/22 12:27:51;;;;;;;7.63;3.95;;;;;;;;;;4991474;28;20041;-80
2023/08/22 12:30:17;;;;;;;9.02;4.00;;;;;;;;;;4998864;28;20393;-79
2023/08/22 12:32:46;;;;;;;12.32;4.47;;;;;;;;;;5028613;28;20041;-81
2023/08/22 12:35:15;;;;;;;6.72;3.50;;;;;;;;;;5024184;28;20216;-80
2023/08/22 12:37:40;;;;;;;8.23;3.92;;;;;;;;;;5005361;28;20029;-80
2023/08/22 12:40:10;;;;;;;12.70;3.97;;;;;;;;;;4984164;28;20370;-80
2023/08/22 12:42:39;;;;;;;8.25;3.60;;;;;;;;;;5018282;28;20081;-81
2023/08/22 12:45:09;;;;;;;10.13;3.83;;;;;;;;;;5015525;28;20033;-81
2023/08/22 12:47:38;;;;;;;8.52;3.83;;;;;;;;;;5008046;28;20026;-81
2023/08/22 12:50:04;;;;;;;7.97;3.72;;;;;;;;;;5029450;28;20503;-80
2023/08/22 12:52:30;;;;;;;9.15;4.07;;;;;;;;;;5017664;28;20040;-79
2023/08/22 12:54:55;;;;;;;8.43;3.97;;;;;;;;;;5012615;28;20436;-81
2023/08/22 12:57:21;;;;;;;9.27;3.78;;;;;;;;;;5009216;28;20256;-81
2023/08/22 12:59:49;;;;;;;6.28;3.25;;;;;;;;;;5020838;28;20393;-81
2023/08/22 13:02:23;;;;;;;9.38;3.33;;;;;;;;;;5009659;28;20041;-80
2023/08/22 13:04:49;;;;;;;11.90;3.55;;;;;;;;;;5005324;28;20037;-81
2023/08/22 13:07:17;;;;;;;6.70;3.95;;;;;;;;;;5021083;28;20030;-79
2023/08/22 13:09:42;;;;;;;9.02;4.00;;;;;;;;;;5002501;28;20462;-82
2023/08/22 13:12:18;;;;;;;8.57;4.00;;;;;;;;;;4982267;28;20401;-82
2023/08/22 13:14:43;;;;;;;8.88;4.03;;;;;;;;;;5016862;28;20104;-82
2023/08/22 13:17:09;;;;;;;7.15;3.45;;;;;;;;;;5010147;28;20159;-81
2023/08/22 13:19:37;;;;;;;8.57;4.15;;;;;;;;;;5025066;28;20473;-81
2023/08/22 13:22:02;;;;;;;;;;;;;;;;;;5030038;28;20041;-81
2023/08/22 13:24:28;;;;;;;8.75;3.72;;;;;;;;;;4999088;28;20374;-80
2023/08/22 13:26:53;;;;;;;8.50;3.53;;;;;;;;;;4967193;28;20065;-82
2023/08/22 13:29:24;;;;;;;8.70;3.13;;;;;;;;;;4990296;28;20034;-80
2023/08/22 13:31:50;;;;;;;6.28;3.40;;;;;;;;;;5013802;28;20117;-82
2023/08/22 13:34:15;;;;;;;6.63;3.50;;;;;;;;;;5001223;28;20104;-81
2023/08/22 13:36:41;;;;;;;4.93;2.72;;;;;;;;;;5029397;28;20033;-81
2023/08/22 13:39:10;;;;;;;7.90;3.45;;;;;;;;;;5028074;28;20026;-79
2023/08/22 13:41:36;;;;;;;6.95;3.33;;;;;;;;;;5014597;28;20030;-81
2023/08/22 13:44:02;;;;;;;7.38;2.72;;;;;;;;;;5009141;28;20409;-82
2023/08/22 13:46:31;;;;;;;5.82;2.97;;;;;;;;;;4998528;28;20544;-81
2023/08/22 13:48:57;;;;;;;7.03;3.22;;;;;;;;;;5012271;28;20431;-82
2023/08/22 13:51:22;;;;;;;7.97;3.20;;;;;;;;;;4964207;28;20037;-81
2023/08/22 13:53:48;;;;;;;8.95;3.45;;;;;;;;;;5008744;28;20029;-81
2023/08/22 13:56:16;;;;;;;9.38;3.13;;;;;;;;;;4996891;28;20033;-80
2023/08/22 13:59:05;;;;;;;6.65;2.70;;;;;;;;;;5000354;28;20044;-81
2023/08/22 14:01:31;;;;;;;6.47;2.65;;;;;;;;;;5017938;28;20018;-82
2023/08/22 14:04:04;;;;;;;7.93;2.97;;;;;;;;;;5011636;28;20041;-80
2023/08/22 14:06:32;;;;;;;8.43;3.15;;;;;;;;;;5001001;28;20029;-81
2023/08/22 14:09:07;;;;;;;10.43;2.70;;;;;;;;;;5024947;28;20021;-82
2023/08/22 14:11:39;;;;;;;9.77;3.03;;;;;;;;;;5028881;28;20106;-80
2023/08/22 14:14:04;;;;;;;7.50;2.40;;;;;;;;;;5037663;28;20034;-80
2023/08/22 14:16:30;;;;;;;7.00;2.50;;;;;;;;;;5010549;28;20393;-81
2023/08/22 14:18:59;;;;;;;8.65;2.97;;;;;;;;;;5012773;28;20382;-81
2023/08/22 14:21:25;;;;;;;51.75;28.65;;;;;;;;;;5007087;28;20400;-83
2023/08/22 14:23:50;;;;;;;126.53;100.65;;;;;;;;;;5020852;28;20029;-87
2023/08/22 14:26:20;;;;;;;7.13;4.82;;;;;;;;;;5010056;28;20079;-87
2023/08/22 14:28:59;;;;;;;6.53;2.60;;;;;;;;;;5013266;28;20026;-87
2023/08/22 14:31:33;;;;;;;;;;;;;;;;;;4995544;28;20041;-85
2023/08/22 14:34:14;;;;;;;7.00;2.70;;;;;;;;;;4995276;28;19972;-87
2023/08/22 14:36:44;;;;;;;5.88;2.33;;;;;;;;;;5008575;28;20091;-87
2023/08/22 14:39:10;;;;;;;5.53;1.90;;;;;;;;;;5025673;28;20060;-87
2023/08/22 14:41:36;;;;;;;7.05;2.50;;;;;;;;;;4986105;28;20069;-89
2023/08/22 14:44:03;;;;;;;8.50;2.10;;;;;;;;;;4973668;28;20077;-88
2023/08/22 14:46:29;;;;;;;5.65;2.15;;;;;;;;;;5000554;28;20068;-88